createdAt,value
2019-04-18T00:01:56.789Z,34.10
2019-04-18T00:04:26.904Z,34.70
2019-04-18T00:06:55.668Z,34.60
2019-04-18T00:09:24.186Z,34.90
2019-04-18T00:11:52.856Z,35.30
2019-04-18T00:14:41.398Z,35.70
2019-04-18T00:16:53.999Z,35.70
2019-04-18T00:19:21.512Z,35.90
2019-04-18T00:21:52.669Z,36.00
2019-04-18T00:24:20.057Z,36.30
2019-04-18T00:26:48.480Z,36.40
2019-04-18T00:29:16.905Z,36.70
2019-04-18T00:31:45.341Z,37.30
2019-04-18T00:34:16.160Z,37.50
2019-04-18T00:36:43.996Z,37.70
2019-04-18T00:39:14.043Z,38.00
2019-04-18T00:41:46.298Z,38.70
2019-04-18T00:44:16.913Z,38.90
2019-04-18T00:46:45.969Z,39.50
2019-04-18T00:49:15.502Z,39.40
2019-04-18T00:51:44.807Z,39.70
2019-04-18T00:54:13.490Z,39.80
2019-04-18T00:56:41.914Z,40.20
2019-04-18T00:59:10.332Z,40.50
2019-04-18T01:01:41.780Z,40.60
2019-04-18T01:04:08.968Z,40.80
2019-04-18T01:06:37.386Z,41.00
2019-04-18T01:09:11.588Z,40.70
2019-04-18T01:11:39.987Z,40.90
2019-04-18T01:14:12.473Z,40.90
2019-04-18T01:16:39.138Z,41.00
2019-04-18T01:19:07.636Z,41.00
2019-04-18T01:21:38.311Z,41.00
2019-04-18T01:24:06.802Z,41.20
2019-04-18T01:26:35.320Z,41.50
2019-04-18T01:29:04.466Z,41.80
2019-04-18T01:31:33.100Z,41.80
2019-04-18T01:34:01.726Z,42.80
2019-04-18T01:36:30.260Z,43.00
2019-04-18T01:38:58.716Z,42.90
2019-04-18T01:41:31.541Z,42.80
2019-04-18T01:44:07.496Z,43.20
2019-04-18T01:46:36.406Z,43.30
2019-04-18T01:49:08.495Z,41.80
2019-04-18T01:51:35.400Z,41.90
2019-04-18T01:54:10.592Z,41.80
2019-04-18T01:56:34.301Z,42.90
2019-04-18T01:59:07.024Z,43.50
2019-04-18T02:01:32.923Z,43.90
2019-04-18T02:04:06.097Z,44.00
2019-04-18T02:06:31.839Z,44.40
2019-04-18T02:09:00.786Z,44.40
2019-04-18T02:11:29.687Z,44.30
2019-04-18T02:13:58.100Z,44.40
2019-04-18T02:16:26.540Z,43.90
2019-04-18T02:18:55.557Z,44.30
2019-04-18T02:21:24.035Z,44.40
2019-04-18T02:23:56.252Z,44.60
2019-04-18T02:26:22.641Z,44.90
2019-04-18T02:28:51.049Z,44.70
2019-04-18T02:31:19.519Z,44.70
2019-04-18T02:33:47.971Z,44.70
2019-04-18T02:36:16.417Z,44.90
2019-04-18T02:38:44.815Z,44.90
2019-04-18T02:41:14.154Z,44.90
2019-04-18T02:43:42.629Z,44.80
2019-04-18T02:46:13.271Z,44.90
2019-04-18T02:48:41.195Z,45.10
2019-04-18T02:51:11.480Z,45.10
2019-04-18T02:53:39.786Z,45.10
2019-04-18T02:56:09.829Z,45.20
2019-04-18T02:58:42.616Z,44.90
2019-04-18T03:01:29.252Z,44.70
2019-04-18T03:04:02.351Z,45.30
2019-04-18T03:06:30.765Z,45.50
2019-04-18T03:09:00.169Z,45.80
2019-04-18T03:11:29.621Z,46.10
2019-04-18T03:13:58.036Z,46.10
2019-04-18T03:16:26.787Z,46.10
2019-04-18T03:18:55.232Z,46.20
2019-04-18T03:21:25.655Z,46.20
2019-04-18T03:23:53.781Z,46.40
2019-04-18T03:26:23.900Z,46.20
2019-04-18T03:28:52.425Z,46.40
2019-04-18T03:31:25.103Z,46.40
2019-04-18T03:33:50.981Z,46.40
2019-04-18T03:36:19.385Z,46.20
2019-04-18T03:38:47.817Z,46.40
2019-04-18T03:41:16.217Z,46.80
2019-04-18T03:43:44.637Z,47.00
2019-04-18T03:46:20.334Z,46.90
2019-04-18T03:48:48.789Z,46.80
2019-04-18T03:51:19.790Z,47.00
2019-04-18T03:53:47.707Z,46.80
2019-04-18T03:56:35.652Z,46.90
2019-04-18T03:59:04.714Z,47.10
2019-04-18T04:01:34.210Z,47.00
2019-04-18T04:04:02.671Z,47.50
2019-04-18T04:06:31.068Z,47.60
2019-04-18T04:08:59.960Z,48.00
2019-04-18T04:11:29.685Z,48.00
2019-04-18T04:13:58.461Z,48.10
2019-04-18T04:16:30.759Z,48.00
2019-04-18T04:19:04.068Z,48.60
2019-04-18T04:21:32.468Z,48.60
2019-04-18T04:24:00.898Z,48.70
2019-04-18T04:26:29.344Z,48.70
2019-04-18T04:29:00.797Z,48.40
2019-04-18T04:31:30.022Z,48.80
2019-04-18T04:33:58.675Z,48.90
2019-04-18T04:36:32.485Z,49.10
2019-04-18T04:38:57.502Z,49.10
2019-04-18T04:41:25.934Z,49.10
2019-04-18T04:43:54.981Z,49.50
2019-04-18T04:46:24.188Z,49.50
2019-04-18T04:48:58.544Z,49.60
2019-04-18T04:51:42.445Z,49.80
2019-04-18T04:54:18.170Z,49.30
2019-04-18T04:56:59.654Z,49.10
2019-04-18T04:59:38.995Z,48.80
2019-04-18T05:02:09.071Z,48.80
2019-04-18T05:04:37.915Z,49.10
2019-04-18T05:07:06.527Z,48.40
2019-04-18T05:09:35.629Z,48.60
2019-04-18T05:12:06.243Z,48.40
2019-04-18T05:14:35.871Z,48.40
2019-04-18T05:17:05.397Z,48.50
2019-04-18T05:19:33.970Z,48.60
2019-04-18T05:22:02.449Z,48.70
2019-04-18T05:24:30.891Z,48.60
2019-04-18T05:26:59.378Z,48.20
2019-04-18T05:29:27.793Z,48.40
2019-04-18T05:31:56.309Z,47.90
2019-04-18T05:34:24.769Z,48.40
2019-04-18T05:36:56.651Z,47.90
2019-04-18T05:39:29.987Z,48.00
2019-04-18T05:41:56.786Z,48.10
2019-04-18T05:44:28.350Z,47.60
2019-04-18T05:46:59.219Z,47.50
2019-04-18T05:49:29.308Z,47.70
2019-04-18T05:51:59.367Z,47.70
2019-04-18T05:54:35.307Z,47.80
2019-04-18T05:57:03.743Z,47.50
2019-04-18T05:59:33.783Z,46.90
2019-04-18T06:02:23.636Z,46.60
2019-04-18T06:04:57.301Z,46.20
2019-04-18T06:07:28.053Z,44.90
2019-04-18T06:09:56.769Z,44.30
2019-04-18T06:12:31.701Z,44.30
2019-04-18T06:14:58.639Z,43.90
2019-04-18T06:17:35.211Z,43.40
2019-04-18T06:20:06.117Z,42.50
2019-04-18T06:22:36.860Z,41.70
2019-04-18T06:25:15.689Z,41.10
2019-04-18T06:27:46.153Z,40.70
2019-04-18T06:30:19.278Z,40.00
2019-04-18T06:33:08.655Z,39.80
2019-04-18T06:35:37.082Z,38.90
2019-04-18T06:38:05.827Z,38.70
2019-04-18T06:40:34.497Z,38.30
2019-04-18T06:43:02.985Z,38.70
2019-04-18T06:45:31.396Z,37.90
2019-04-18T06:48:03.245Z,37.70
2019-04-18T06:50:30.133Z,36.60
2019-04-18T06:52:58.550Z,36.90
2019-04-18T06:55:26.979Z,36.60
2019-04-18T06:57:58.918Z,35.50
2019-04-18T07:00:29.061Z,35.20
2019-04-18T07:02:56.192Z,34.20
2019-04-18T07:05:24.602Z,34.00
2019-04-18T07:07:54.651Z,34.00
2019-04-18T07:10:55.634Z,33.70
2019-04-18T07:13:28.015Z,33.60
2019-04-18T07:15:56.557Z,32.90
2019-04-18T07:18:25.833Z,32.90
2019-04-18T07:21:12.315Z,31.40
2019-04-18T07:23:42.533Z,31.60
2019-04-18T07:26:11.160Z,31.00
2019-04-18T07:28:49.237Z,30.90
2019-04-18T07:31:10.036Z,31.60
2019-04-18T07:33:41.132Z,31.40
2019-04-18T07:36:10.080Z,30.50
2019-04-18T07:38:38.533Z,30.00
2019-04-18T07:41:07.204Z,30.10
2019-04-18T07:43:36.298Z,29.10
2019-04-18T07:46:07.614Z,28.80
2019-04-18T07:48:36.834Z,28.80
2019-04-18T07:51:05.574Z,28.80
2019-04-18T07:53:34.132Z,28.20
2019-04-18T07:56:03.379Z,28.30
2019-04-18T07:58:33.246Z,28.80
2019-04-18T08:01:03.392Z,29.40
2019-04-18T08:03:40.090Z,29.10
2019-04-18T08:06:02.780Z,29.70
2019-04-18T08:08:31.204Z,29.10
2019-04-18T08:10:59.608Z,28.60
2019-04-18T08:13:28.029Z,28.30
2019-04-18T08:15:56.444Z,28.80
2019-04-18T08:18:26.965Z,29.20
2019-04-18T08:20:55.054Z,28.80
2019-04-18T08:23:33.239Z,28.30
2019-04-18T08:25:55.091Z,29.40
2019-04-18T08:28:23.800Z,29.50
2019-04-18T08:30:52.264Z,29.30
2019-04-18T08:33:21.085Z,28.60
2019-04-18T08:35:54.204Z,28.30
2019-04-18T08:38:32.899Z,28.30
2019-04-18T08:41:14.909Z,28.10
2019-04-18T08:43:57.048Z,27.90
2019-04-18T08:46:37.588Z,28.00
2019-04-18T08:49:05.217Z,27.40
2019-04-18T08:51:35.242Z,28.30
2019-04-18T08:54:17.387Z,27.90
2019-04-18T08:56:47.432Z,27.50
2019-04-18T08:59:39.035Z,26.40
2019-04-18T09:02:04.094Z,27.00
2019-04-18T09:04:32.881Z,27.70
2019-04-18T09:07:01.789Z,27.50
2019-04-18T09:09:31.286Z,27.20
2019-04-18T09:12:01.634Z,28.00
2019-04-18T09:14:31.507Z,27.50
2019-04-18T09:17:00.748Z,26.40
2019-04-18T09:19:29.407Z,27.20
2019-04-18T09:21:58.613Z,27.20
2019-04-18T09:24:28.206Z,25.80
2019-04-18T09:26:58.138Z,25.30
2019-04-18T09:29:26.665Z,25.00
2019-04-18T09:31:55.072Z,24.90
2019-04-18T09:34:23.512Z,25.00
2019-04-18T09:36:51.913Z,25.30
2019-04-18T09:39:20.697Z,25.00
2019-04-18T09:41:49.153Z,25.30
2019-04-18T09:44:19.560Z,24.90
2019-04-18T09:46:47.711Z,24.90
2019-04-18T09:49:16.163Z,24.60
2019-04-18T09:51:44.633Z,24.80
2019-04-18T09:54:19.250Z,25.00
2019-04-18T09:56:47.662Z,25.20
2019-04-18T09:59:16.064Z,24.30
2019-04-18T10:01:44.502Z,24.20
2019-04-18T10:04:13.572Z,24.20
2019-04-18T10:06:42.789Z,24.60
2019-04-18T10:09:11.273Z,25.00
2019-04-18T10:11:39.886Z,23.90
2019-04-18T10:14:08.888Z,24.20
2019-04-18T10:16:39.312Z,24.40
2019-04-18T10:19:07.860Z,24.40
2019-04-18T10:21:40.947Z,24.70
2019-04-18T10:24:09.352Z,24.00
2019-04-18T10:26:42.392Z,23.60
2019-04-18T10:29:10.827Z,23.60
2019-04-18T10:31:43.822Z,23.60
2019-04-18T10:34:15.496Z,23.20
2019-04-18T10:36:42.818Z,23.60
2019-04-18T10:39:11.287Z,23.60
2019-04-18T10:41:40.091Z,23.70
2019-04-18T10:44:09.287Z,23.80
2019-04-18T10:46:37.780Z,23.80
2019-04-18T10:49:06.200Z,23.70
2019-04-18T10:51:34.602Z,23.40
2019-04-18T10:54:03.137Z,23.50
2019-04-18T10:56:31.563Z,23.50
2019-04-18T10:59:00.120Z,24.70
2019-04-18T11:01:28.640Z,24.30
2019-04-18T11:04:13.190Z,23.80
2019-04-18T11:06:27.569Z,23.30
2019-04-18T11:08:56.273Z,23.10
2019-04-18T11:11:24.764Z,23.60
2019-04-18T11:13:53.177Z,24.30
2019-04-18T11:16:21.728Z,24.30
2019-04-18T11:18:50.189Z,23.90
2019-04-18T11:21:18.913Z,24.40
2019-04-18T11:23:47.484Z,24.50
2019-04-18T11:26:15.877Z,23.80
2019-04-18T11:28:44.315Z,23.90
2019-04-18T11:31:12.768Z,23.80
2019-04-18T11:33:41.184Z,23.70
2019-04-18T11:36:09.746Z,23.40
2019-04-18T11:38:38.128Z,23.70
2019-04-18T11:41:06.863Z,23.20
2019-04-18T11:43:35.311Z,23.80
2019-04-18T11:46:03.820Z,23.50
2019-04-18T11:48:32.477Z,23.30
2019-04-18T11:51:00.885Z,23.90
2019-04-18T11:53:29.359Z,23.70
2019-04-18T11:55:59.520Z,24.00
2019-04-18T11:58:28.064Z,24.40
2019-04-18T12:01:17.704Z,23.80
2019-04-18T12:03:51.157Z,23.60
2019-04-18T12:06:19.558Z,23.20
2019-04-18T12:08:48.099Z,23.40
2019-04-18T12:11:16.878Z,22.20
2019-04-18T12:13:45.292Z,22.50
2019-04-18T12:16:13.778Z,23.00
2019-04-18T12:18:42.268Z,21.80
2019-04-18T12:21:10.743Z,21.40
2019-04-18T12:23:39.155Z,22.00
2019-04-18T12:26:07.620Z,22.20
2019-04-18T12:28:36.208Z,22.30
2019-04-18T12:31:04.761Z,21.90
2019-04-18T12:33:35.162Z,21.30
2019-04-18T12:36:04.975Z,21.50
2019-04-18T12:38:33.593Z,21.80
2019-04-18T12:41:08.630Z,21.40
2019-04-18T12:43:32.263Z,21.20
2019-04-18T12:46:01.012Z,19.80
2019-04-18T12:48:29.540Z,19.00
2019-04-18T12:50:57.985Z,19.20
2019-04-18T12:53:26.572Z,19.30
2019-04-18T12:55:57.898Z,19.70
2019-04-18T12:58:25.582Z,20.60
2019-04-18T13:00:54.029Z,21.40
2019-04-18T13:03:22.607Z,21.00
2019-04-18T13:05:51.060Z,20.40
2019-04-18T13:08:25.812Z,19.10
2019-04-18T13:10:59.553Z,18.10
2019-04-18T13:13:39.020Z,18.70
2019-04-18T13:16:14.885Z,19.50
2019-04-18T13:18:43.899Z,19.90
2019-04-18T13:21:12.615Z,19.80
2019-04-18T13:23:41.159Z,20.00
2019-04-18T13:26:09.772Z,19.60
2019-04-18T13:28:38.251Z,17.10
2019-04-18T13:31:07.288Z,18.10
2019-04-18T13:33:35.906Z,18.60
2019-04-18T13:36:05.509Z,19.30
2019-04-18T13:38:34.324Z,19.00
2019-04-18T13:41:03.332Z,19.20
2019-04-18T13:43:31.886Z,19.50
2019-04-18T13:46:00.522Z,19.70
2019-04-18T13:48:29.053Z,19.50
2019-04-18T13:50:57.919Z,19.00
2019-04-18T13:53:26.813Z,18.90
2019-04-18T13:55:55.335Z,18.20
2019-04-18T13:58:26.827Z,19.50
2019-04-18T14:00:54.056Z,20.20
2019-04-18T14:03:22.588Z,20.10
2019-04-18T14:05:51.979Z,19.50
2019-04-18T14:08:20.933Z,19.40
2019-04-18T14:10:49.456Z,18.60
2019-04-18T14:13:18.000Z,18.30
2019-04-18T14:15:46.696Z,17.60
2019-04-18T14:18:15.166Z,16.70
2019-04-18T14:20:43.725Z,17.60
2019-04-18T14:23:12.174Z,17.80
2019-04-18T14:25:42.557Z,18.30
2019-04-18T14:28:10.885Z,18.90
2019-04-18T14:30:39.361Z,18.70
2019-04-18T14:33:07.893Z,18.40
2019-04-18T14:35:36.365Z,18.80
2019-04-18T14:38:04.932Z,19.00
2019-04-18T14:40:33.470Z,18.70
2019-04-18T14:43:02.006Z,18.40
2019-04-18T14:45:30.477Z,19.10
2019-04-18T14:48:06.352Z,19.20
2019-04-18T14:50:29.254Z,18.80
2019-04-18T14:52:57.697Z,17.70
2019-04-18T14:55:26.421Z,17.50
2019-04-18T14:57:56.618Z,18.50
2019-04-18T15:00:41.081Z,19.40
2019-04-18T15:02:55.989Z,19.10
2019-04-18T15:05:26.096Z,18.90
2019-04-18T15:07:54.683Z,18.50
2019-04-18T15:10:24.741Z,18.60
2019-04-18T15:12:53.276Z,19.00
2019-04-18T15:15:23.556Z,19.00
2019-04-18T15:17:52.270Z,18.50
2019-04-18T15:20:21.232Z,18.80
2019-04-18T15:22:49.666Z,19.10
2019-04-18T15:25:18.463Z,19.50
2019-04-18T15:27:47.044Z,19.60
2019-04-18T15:30:15.871Z,18.50
2019-04-18T15:32:44.526Z,17.60
2019-04-18T15:35:13.738Z,18.10
2019-04-18T15:37:42.182Z,18.60
2019-04-18T15:40:13.744Z,18.70
2019-04-18T15:42:42.237Z,18.80
2019-04-18T15:45:12.439Z,19.20
2019-04-18T15:47:40.873Z,19.30
2019-04-18T15:50:09.448Z,19.40
2019-04-18T15:52:37.918Z,19.50
2019-04-18T15:55:07.901Z,19.80
2019-04-18T15:57:37.190Z,19.50
2019-04-18T16:00:07.561Z,19.50
2019-04-18T16:02:36.077Z,19.50
2019-04-18T16:05:06.391Z,19.20
2019-04-18T16:07:34.967Z,19.20
2019-04-18T16:10:18.419Z,18.80
2019-04-18T16:12:37.183Z,18.90
2019-04-18T16:15:17.280Z,18.80
2019-04-18T16:17:46.275Z,18.70
2019-04-18T16:20:15.578Z,18.00
2019-04-18T16:22:44.173Z,17.90
2019-04-18T16:25:13.737Z,18.10
2019-04-18T16:27:42.328Z,18.50
2019-04-18T16:30:11.916Z,18.70
2019-04-18T16:32:40.437Z,18.70
2019-04-18T16:35:10.768Z,19.00
2019-04-18T16:37:39.288Z,19.10
2019-04-18T16:40:08.153Z,18.90
2019-04-18T16:42:36.688Z,19.00
2019-04-18T16:45:07.045Z,19.10
2019-04-18T16:47:35.695Z,18.80
2019-04-18T16:50:06.554Z,19.00
2019-04-18T16:52:35.078Z,18.70
2019-04-18T16:55:04.239Z,18.80
2019-04-18T16:57:32.743Z,18.50
2019-04-18T17:00:01.199Z,18.70
2019-04-18T17:02:29.777Z,18.40
2019-04-18T17:04:58.264Z,18.40
2019-04-18T17:07:26.782Z,18.30
2019-04-18T17:09:55.550Z,19.30
2019-04-18T17:12:24.110Z,18.70
2019-04-18T17:14:52.617Z,19.00
2019-04-18T17:17:21.151Z,19.00
2019-04-18T17:19:49.686Z,19.20
2019-04-18T17:22:18.336Z,19.40
2019-04-18T17:24:46.793Z,19.60
2019-04-18T17:27:15.384Z,19.80
2019-04-18T17:29:43.849Z,19.60
2019-04-18T17:32:12.359Z,19.80
2019-04-18T17:34:49.870Z,20.00
2019-04-18T17:37:23.918Z,20.10
2019-04-18T17:39:58.154Z,20.20
2019-04-18T17:42:12.495Z,20.40
2019-04-18T17:44:48.282Z,20.50
2019-04-18T17:47:21.349Z,20.60
2019-04-18T17:49:57.629Z,20.60
2019-04-18T17:52:31.642Z,20.60
2019-04-18T17:55:10.370Z,20.90
2019-04-18T17:57:20.994Z,21.00
2019-04-18T17:59:49.773Z,21.10
2019-04-18T18:02:22.335Z,21.20
2019-04-18T18:04:52.173Z,21.50
2019-04-18T18:07:25.271Z,21.30
2019-04-18T18:09:53.598Z,21.70
2019-04-18T18:12:23.161Z,21.70
2019-04-18T18:14:53.237Z,21.70
2019-04-18T18:17:21.647Z,21.90
2019-04-18T18:19:57.402Z,22.00
2019-04-18T18:22:29.613Z,22.10
2019-04-18T18:24:52.133Z,22.70
2019-04-18T18:27:20.726Z,22.40
2019-04-18T18:29:52.272Z,22.50
2019-04-18T18:32:19.541Z,22.70
2019-04-18T18:34:59.323Z,23.10
2019-04-18T18:37:35.823Z,23.20
2019-04-18T18:39:52.235Z,23.30
2019-04-18T18:42:26.522Z,23.40
2019-04-18T18:44:54.783Z,23.50
2019-04-18T18:47:21.354Z,23.80
2019-04-18T18:49:49.950Z,23.90
2019-04-18T18:52:19.370Z,24.00
2019-04-18T18:54:50.525Z,24.20
2019-04-18T18:57:21.737Z,24.20
2019-04-18T18:59:56.788Z,24.30
2019-04-18T19:02:23.126Z,24.60
2019-04-18T19:05:09.721Z,24.80
2019-04-18T19:07:27.619Z,25.00
2019-04-18T19:10:05.330Z,25.10
2019-04-18T19:12:26.783Z,25.20
2019-04-18T19:15:00.003Z,25.40
2019-04-18T19:17:26.622Z,25.40
2019-04-18T19:19:51.974Z,25.60
2019-04-18T19:22:21.296Z,25.70
2019-04-18T19:24:56.481Z,26.00
2019-04-18T19:27:30.146Z,26.30
2019-04-18T19:29:59.233Z,26.40
2019-04-18T19:32:22.811Z,26.50
2019-04-18T19:34:58.464Z,26.70
2019-04-18T19:37:37.337Z,26.80
2019-04-18T19:40:16.744Z,27.00
2019-04-18T19:42:24.939Z,27.20
2019-04-18T19:44:58.949Z,27.20
2019-04-18T19:47:23.007Z,27.30
2019-04-18T19:49:52.543Z,27.40
2019-04-18T19:52:24.906Z,27.60
2019-04-18T19:54:51.734Z,27.70
2019-04-18T19:57:20.848Z,27.70
2019-04-18T19:59:49.430Z,27.80
2019-04-18T20:02:18.736Z,28.10
2019-04-18T20:04:50.712Z,28.10
2019-04-18T20:07:33.502Z,28.30
2019-04-18T20:09:57.926Z,28.50
2019-04-18T20:12:31.027Z,28.60
2019-04-18T20:14:50.078Z,28.70
2019-04-18T20:17:19.343Z,28.80
2019-04-18T20:19:49.708Z,29.00
2019-04-18T20:22:21.498Z,29.00
2019-04-18T20:24:49.551Z,29.40
2019-04-18T20:27:23.775Z,29.30
2019-04-18T20:29:50.457Z,29.30
2019-04-18T20:32:24.194Z,29.30
2019-04-18T20:34:51.977Z,29.30
2019-04-18T20:37:34.886Z,29.30
2019-04-18T20:40:10.478Z,29.30
2019-04-18T20:42:36.956Z,29.30
2019-04-18T20:44:54.399Z,29.30
2019-04-18T20:47:36.918Z,29.30
2019-04-18T20:50:02.690Z,29.30
2019-04-18T20:52:40.043Z,29.10
2019-04-18T20:55:07.510Z,29.20
2019-04-18T20:57:22.031Z,29.20
2019-04-18T20:59:51.274Z,29.60
2019-04-18T21:02:19.721Z,29.20
2019-04-18T21:04:53.188Z,29.30
2019-04-18T21:07:32.306Z,29.40
2019-04-18T21:09:59.758Z,29.40
2019-04-18T21:12:20.118Z,29.30
2019-04-18T21:14:48.733Z,29.30
2019-04-18T21:17:20.382Z,29.40
2019-04-18T21:19:50.836Z,29.30
2019-04-18T21:22:17.947Z,29.60
2019-04-18T21:24:46.430Z,29.80
2019-04-18T21:27:17.049Z,29.70
2019-04-18T21:29:46.472Z,30.00
2019-04-18T21:32:16.102Z,30.00
2019-04-18T21:34:52.751Z,30.30
2019-04-18T21:37:26.518Z,30.00
2019-04-18T21:39:45.183Z,30.00
2019-04-18T21:42:13.680Z,30.10
2019-04-18T21:44:47.626Z,30.20
2019-04-18T21:47:14.330Z,30.20
2019-04-18T21:49:43.274Z,30.20
2019-04-18T21:52:12.114Z,30.20
2019-04-18T21:54:44.844Z,30.10
2019-04-18T21:57:10.692Z,29.90
2019-04-18T21:59:47.486Z,29.80
2019-04-18T22:02:17.827Z,29.80
2019-04-18T22:04:41.311Z,29.80
2019-04-18T22:07:20.756Z,29.90
2019-04-18T22:09:44.240Z,30.00
2019-04-18T22:12:11.095Z,29.90
2019-04-18T22:14:41.359Z,30.00
2019-04-18T22:17:10.047Z,29.90
2019-04-18T22:19:39.709Z,30.10
2019-04-18T22:22:09.632Z,30.00
2019-04-18T22:24:39.682Z,30.00
2019-04-18T22:27:14.785Z,30.20
2019-04-18T22:29:40.023Z,30.30
2019-04-18T22:32:14.040Z,30.20
2019-04-18T22:34:38.885Z,30.20
2019-04-18T22:37:09.931Z,30.30
2019-04-18T22:39:38.586Z,30.30
2019-04-18T22:42:14.148Z,30.30
2019-04-18T22:44:38.129Z,30.50
2019-04-18T22:47:10.323Z,30.40
2019-04-18T22:49:37.605Z,30.60
2019-04-18T22:52:06.177Z,30.90
2019-04-18T22:54:37.509Z,31.30
2019-04-18T22:57:05.665Z,30.90
2019-04-18T22:59:41.811Z,31.10
2019-04-18T23:02:06.614Z,31.20
2019-04-18T23:04:36.463Z,31.40
2019-04-18T23:07:10.567Z,31.30
2019-04-18T23:09:41.093Z,31.30
2019-04-18T23:12:06.977Z,32.10
2019-04-18T23:14:39.679Z,31.50
2019-04-18T23:17:06.150Z,31.40
2019-04-18T23:19:40.882Z,31.60
2019-04-18T23:22:07.145Z,31.30
2019-04-18T23:24:40.790Z,31.30
2019-04-18T23:27:06.269Z,31.80
2019-04-18T23:29:37.804Z,31.60
2019-04-18T23:32:06.097Z,31.70
2019-04-18T23:34:38.937Z,31.70
2019-04-18T23:37:05.312Z,31.70
2019-04-18T23:39:37.616Z,31.70
2019-04-18T23:42:08.288Z,32.00
2019-04-18T23:44:36.911Z,32.00
2019-04-18T23:47:07.712Z,32.00
2019-04-18T23:49:36.599Z,32.00
2019-04-18T23:52:06.214Z,32.10
2019-04-18T23:54:37.479Z,32.30
2019-04-18T23:57:09.122Z,31.80
2019-04-18T23:59:39.291Z,31.70
